AirNav   Pilot Hours Calculator
 
 1247 users online  

25MD Whalen Field Airport
Sudlersville, Maryland, USA

GOING TO SUDLERSVILLE?


FAA INFORMATION EFFECTIVE 25 MARCH 2021

Location

FAA Identifier: 25MD
Lat/Long: 39-10-03.1400N 075-50-24.7600W
39-10.052333N 075-50.412667W
39.1675389,-75.8402111
(estimated)
Elevation: 70 ft. / 21 m (estimated)
From city: 2 miles SE of SUDLERSVILLE, MD
Time zone: UTC -4 (UTC -5 during Standard Time)
Zip code: 21668

Airport Operations

Airport use: Private use. Permission required prior to landing
Activation date: 04/2006
Control tower: no
ARTCC: WASHINGTON CENTER
FSS: LEESBURG FLIGHT SERVICE STATION
Attendance: UNATNDD
Wind indicator: yes
Segmented circle: no

Airport Communications

WX AWOS-3 at 33N (12 nm E): 120.125 (302-735-9754)

Nearby radio navigation aids

VOR radial/distance  VOR name  Freq  Var
ENOr265/15.6SMYRNA VORTAC111.4009W
DQOr209/32.5DUPONT VORTAC114.0010W
ATRr315/36.3WATERLOO VOR/DME112.6009W
OODr232/37.6WOODSTOWN VORTAC112.8010W
BALr101/38.2BALTIMORE VORTAC115.1011W

 
NDB name  Hdg/Dist  Freq  Var  ID
RAINBOW256/36.036311WRNB .-. -. -...

Airport Services

Runway Information

Runway 17/35

Dimensions: 2000 x 85 ft. / 610 x 26 m
Surface: turf
RUNWAY 17  RUNWAY 35
Traffic pattern: leftleft
Obstructions: 15 ft. road, 15 ft. from runwaynone

Airport Ownership and Management from official FAA records

Ownership: Privately-owned
Owner: MARK WHALEN
313 FORDS LANDING LANE
MILLINGTON, MD 21651
Phone 410-708-3264
Manager: MARK WHALEN
313 FORDS LANDING LANE
MILLINGTON, MD 21651
Phone 410-708-3264

Airport Operational Statistics

Aircraft based on the field: 2
Single engine airplanes: 2
    
Aircraft operations: avg 31/week
100% local general aviation

Additional Remarks

FOR CD CTC WASHINGTON ARTCC AT 703-771-3587.

Instrument Procedures

There are no published instrument procedures at 25MD.

Some nearby airports with instrument procedures:

33N - Delaware Airpark (12 nm E)
KRJD - Ridgely Airpark (12 nm S)
KDOV - Dover Air Force Base (18 nm E)
KEVY - Summit Airport (22 nm N)
KAPG - Phillips Army Airfield (23 nm NW)
 
Loc | Ops | Rwys | IFR | FBO | Links
Com | Nav | Svcs | Stats | Notes
Area around 25MD (Whalen Field Airport)
 
Road maps at: MapQuest Bing Google
 
Aerial photo
No photo
 
Sectional chart

 
Airport distance calculator
Flying to Whalen Field Airport? Find the distance to fly.

From to 25MD

Sunrise and sunset
Times for 17-Apr-2021
 Local
(UTC-4)
 Zulu
(UTC)
Morning civil twilight05:5709:57
Sunrise06:2510:25
Sunset19:4123:41
Evening civil twilight20:0900:09

Current date and time
Zulu (UTC)  17-Apr-2021 14:23:55
Local (UTC-4)  17-Apr-2021 10:23:55
 
METAR
K33N 
12nm E 
171355Z AUTO 33008G16KT 10SM BKN034 11/03 A2984 RMK A01
KDOV 
18nm E 
171356Z AUTO 29009KT 10SM FEW036 11/03 A2982 RMK AO2 SLP102 T01090027 $
KAPG 
21nm NW 
171358Z AUTO 32004KT 10SM OVC033 09/03 A2986 RMK AO2 SLP115 T00930025 $
TAF
KDOV 
18nm E 
170948Z 1709/1814 31006KT 9999 SCT040 QNH2976INS BECMG 1713/1714 30006KT 9999 BKN040 620403 QNH2979INS BECMG 1723/1724 32006KT 9999 SCT040 620403 QNH2981INS WND 28006KT AFT 1804 BECMG 1809/1810 30006KT 9999 BKN040 620403 QNH2984INS TX14/1720Z TN05/1710Z
NOTAMs
Click for the latest NOTAMs
NOTAMs are issued by the DoD/FAA and will open in a separate window not controlled by AirNav.

 

 
 

Would you like to see your business listed on this page?

 If your business provides an interesting product or service to pilots, flight crews, aircraft, or users of the Whalen Field Airport, you should consider listing it here.  To start the listing process, click on the button below
 
Add a business
 

Other Pages about Whalen Field Airport

Update a link
 
Copyright © AirNav, LLC. All rights reserved. Privacy Policy  Contact